RZO280 LPPD-KBOS
Flight info
| Callsign | RZO280 |
|---|---|
| Flight time | N/A |
| Altitude | 38000 |
| Route | MIPRU DCT 40N030W 43N040W 45N050W DCT RAFIN/N0449F380 N90B TUSKY DCT EURRO OOSHN5 |
| Aircraft | A20N/M-SDE2E3FGHIRWXY/LB1 |
Departure
| Time | 2026-04-27 19:52 |
|---|---|
| Airport | João Paulo II Airport (LPPD) |
Arrival
| Time | N/A |
|---|---|
| Airport | Boston Logan International Airport (KBOS) |
| Time | Latitude | Longitude | Altitude | Speed | Heading |
|---|---|---|---|---|---|
| 2026-04-27 19:00 | 37.74875 | -25.71119 | 268 ft | 0 kts | 22° |
| 2026-04-27 19:41 | 37.74874 | -25.71120 | 267 ft | 2 kts | 22° |
| 2026-04-27 19:41 | 37.74851 | -25.71131 | 267 ft | 4 kts | 22° |
| 2026-04-27 19:42 | 37.74832 | -25.71141 | 267 ft | 4 kts | 27° |
| 2026-04-27 19:42 | 37.74818 | -25.71159 | 267 ft | 4 kts | 109° |
| 2026-04-27 19:42 | 37.74827 | -25.71187 | 267 ft | 2 kts | 111° |
| 2026-04-27 19:42 | 37.74827 | -25.71188 | 267 ft | 1 kts | 111° |
| 2026-04-27 19:47 | 37.74827 | -25.71187 | 267 ft | 1 kts | 111° |
| 2026-04-27 19:47 | 37.74820 | -25.71165 | 267 ft | 4 kts | 111° |
| 2026-04-27 19:47 | 37.74805 | -25.71118 | 267 ft | 7 kts | 111° |
| 2026-04-27 19:47 | 37.74785 | -25.71054 | 267 ft | 9 kts | 115° |
| 2026-04-27 19:48 | 37.74731 | -25.71020 | 268 ft | 10 kts | 176° |
| 2026-04-27 19:48 | 37.74658 | -25.71022 | 268 ft | 11 kts | 179° |
| 2026-04-27 19:48 | 37.74588 | -25.70981 | 268 ft | 12 kts | 128° |
| 2026-04-27 19:48 | 37.74571 | -25.70938 | 268 ft | 0 kts | 114° |
| 2026-04-27 19:52 | 37.74557 | -25.70899 | 268 ft | 28 kts | 113° |
| 2026-04-27 19:52 | 37.74464 | -25.70604 | 268 ft | 80 kts | 111° |
| 2026-04-27 19:52 | 37.74046 | -25.69270 | 326 ft | 154 kts | 112° |
| 2026-04-27 19:52 | 37.73673 | -25.68019 | 1051 ft | 153 kts | 113° |
| 2026-04-27 19:53 | 37.72908 | -25.65413 | 2448 ft | 168 kts | 117° |
| 2026-04-27 19:53 | 37.72460 | -25.63958 | 2855 ft | 187 kts | 116° |
| 2026-04-27 19:53 | 37.71811 | -25.62491 | 3219 ft | 201 kts | 140° |
| 2026-04-27 19:54 | 37.70555 | -25.61676 | 3644 ft | 207 kts | 176° |
| 2026-04-27 19:54 | 37.69288 | -25.61999 | 4946 ft | 163 kts | 214° |
| 2026-04-27 19:54 | 37.68520 | -25.63116 | 5615 ft | 189 kts | 243° |
| 2026-04-27 19:54 | 37.68346 | -25.64860 | 6183 ft | 206 kts | 277° |
| 2026-04-27 19:55 | 37.69000 | -25.66550 | 6872 ft | 230 kts | 309° |
| 2026-04-27 19:55 | 37.70402 | -25.67737 | 7354 ft | 258 kts | 336° |
| 2026-04-27 19:55 | 37.72167 | -25.68455 | 7815 ft | 281 kts | 340° |
| 2026-04-27 19:55 | 37.74090 | -25.69221 | 8366 ft | 295 kts | 337° |
| 2026-04-27 19:56 | 37.76005 | -25.70191 | 9276 ft | 296 kts | 333° |
| 2026-04-27 19:56 | 37.77872 | -25.71305 | 10237 ft | 297 kts | 331° |
| 2026-04-27 19:56 | 37.79753 | -25.72523 | 10742 ft | 315 kts | 330° |
| 2026-04-27 19:56 | 37.81763 | -25.73871 | 11027 ft | 338 kts | 329° |
| 2026-04-27 19:57 | 37.83817 | -25.75439 | 11513 ft | 348 kts | 322° |
| 2026-04-27 19:57 | 37.85084 | -25.76698 | 11973 ft | 350 kts | 316° |
| 2026-04-27 19:57 | 37.87330 | -25.79638 | 12925 ft | 352 kts | 309° |
| 2026-04-27 19:57 | 37.88971 | -25.81971 | 13638 ft | 356 kts | 310° |
| 2026-04-27 19:58 | 37.90096 | -25.83555 | 14081 ft | 359 kts | 309° |
| 2026-04-27 19:58 | 37.91750 | -25.85878 | 14727 ft | 360 kts | 309° |
| 2026-04-27 19:58 | 37.93438 | -25.88253 | 15362 ft | 363 kts | 309° |
| 2026-04-27 19:58 | 37.95132 | -25.90639 | 15999 ft | 365 kts | 309° |
| 2026-04-27 19:59 | 37.96842 | -25.93050 | 16620 ft | 368 kts | 309° |
| 2026-04-27 19:59 | 37.98559 | -25.95477 | 17231 ft | 371 kts | 310° |
| 2026-04-27 19:59 | 38.00290 | -25.97928 | 17842 ft | 374 kts | 309° |
| 2026-04-27 19:59 | 38.02033 | -26.00397 | 18435 ft | 376 kts | 309° |
| 2026-04-27 20:00 | 38.03765 | -26.02851 | 18943 ft | 379 kts | 309° |
| 2026-04-27 20:00 | 38.05533 | -26.05357 | 19458 ft | 381 kts | 309° |
| 2026-04-27 20:00 | 38.07311 | -26.07880 | 19970 ft | 384 kts | 309° |
| 2026-04-27 20:00 | 38.09103 | -26.10424 | 20472 ft | 387 kts | 309° |
| 2026-04-27 20:01 | 38.10878 | -26.12947 | 20957 ft | 389 kts | 309° |
| 2026-04-27 20:01 | 38.12688 | -26.15523 | 21436 ft | 393 kts | 309° |
| 2026-04-27 20:01 | 38.14519 | -26.18131 | 21915 ft | 395 kts | 309° |
| 2026-04-27 20:01 | 38.16356 | -26.20748 | 22406 ft | 398 kts | 309° |
| 2026-04-27 20:02 | 38.18214 | -26.23398 | 22883 ft | 401 kts | 309° |
| 2026-04-27 20:02 | 38.20055 | -26.26024 | 23343 ft | 404 kts | 309° |
| 2026-04-27 20:02 | 38.21936 | -26.28711 | 23789 ft | 407 kts | 309° |
| 2026-04-27 20:02 | 38.23821 | -26.31405 | 24201 ft | 409 kts | 309° |
| 2026-04-27 20:03 | 38.25681 | -26.34147 | 24627 ft | 409 kts | 305° |
| 2026-04-27 20:03 | 38.27206 | -26.37191 | 25026 ft | 408 kts | 297° |
| 2026-04-27 20:03 | 38.28565 | -26.40366 | 25424 ft | 409 kts | 296° |
| 2026-04-27 20:03 | 38.29901 | -26.43566 | 25839 ft | 410 kts | 295° |
| 2026-04-27 20:04 | 38.31222 | -26.46784 | 26221 ft | 411 kts | 295° |
| 2026-04-27 20:04 | 38.32542 | -26.50028 | 26622 ft | 412 kts | 295° |
| 2026-04-27 20:04 | 38.33861 | -26.53282 | 26995 ft | 414 kts | 295° |
| 2026-04-27 20:04 | 38.35164 | -26.56502 | 27357 ft | 415 kts | 295° |
| 2026-04-27 20:05 | 38.36491 | -26.59786 | 27707 ft | 416 kts | 295° |
| 2026-04-27 20:05 | 38.37821 | -26.63076 | 28056 ft | 418 kts | 295° |
| 2026-04-27 20:05 | 38.39154 | -26.66380 | 28373 ft | 419 kts | 295° |
| 2026-04-27 20:05 | 38.40493 | -26.69699 | 28702 ft | 421 kts | 294° |
| 2026-04-27 20:06 | 38.41833 | -26.73025 | 29004 ft | 422 kts | 294° |
| 2026-04-27 20:06 | 38.43159 | -26.76319 | 29314 ft | 423 kts | 294° |
| 2026-04-27 20:06 | 38.44502 | -26.79661 | 29602 ft | 425 kts | 294° |
| 2026-04-27 20:06 | 38.45853 | -26.83026 | 29876 ft | 426 kts | 294° |
| 2026-04-27 20:07 | 38.47206 | -26.86397 | 30167 ft | 428 kts | 294° |
| 2026-04-27 20:07 | 38.48565 | -26.89787 | 30417 ft | 429 kts | 294° |
| 2026-04-27 20:07 | 38.49928 | -26.93193 | 30678 ft | 430 kts | 294° |
| 2026-04-27 20:07 | 38.51288 | -26.96594 | 30928 ft | 431 kts | 294° |
| 2026-04-27 20:08 | 38.52639 | -26.99975 | 31182 ft | 432 kts | 294° |
| 2026-04-27 20:08 | 38.54007 | -27.03402 | 31537 ft | 429 kts | 294° |
| 2026-04-27 20:08 | 38.55340 | -27.06737 | 32476 ft | 411 kts | 293° |
| 2026-04-27 20:08 | 38.56607 | -27.09904 | 33176 ft | 389 kts | 293° |
| 2026-04-27 20:09 | 38.57815 | -27.12928 | 33586 ft | 377 kts | 292° |
| 2026-04-27 20:09 | 38.58998 | -27.15910 | 33855 ft | 377 kts | 292° |
| 2026-04-27 20:09 | 38.60184 | -27.18908 | 34024 ft | 378 kts | 292° |
| 2026-04-27 20:09 | 38.61377 | -27.21926 | 34105 ft | 382 kts | 292° |
| 2026-04-27 20:10 | 38.63785 | -27.28016 | 34098 ft | 388 kts | 292° |
| 2026-04-27 20:10 | 38.66221 | -27.34175 | 34100 ft | 386 kts | 292° |
| 2026-04-27 20:11 | 38.68650 | -27.40330 | 34099 ft | 387 kts | 292° |
| 2026-04-27 20:11 | 38.71074 | -27.46489 | 34099 ft | 387 kts | 292° |
| 2026-04-27 20:12 | 38.73481 | -27.52616 | 34094 ft | 387 kts | 292° |
| 2026-04-27 20:12 | 38.75898 | -27.58785 | 34088 ft | 387 kts | 292° |
| 2026-04-27 20:13 | 38.78313 | -27.64967 | 34086 ft | 387 kts | 291° |
| 2026-04-27 20:13 | 38.80707 | -27.71108 | 34082 ft | 387 kts | 291° |
| 2026-04-27 20:14 | 38.83117 | -27.77305 | 34081 ft | 387 kts | 291° |
| 2026-04-27 20:14 | 38.85530 | -27.83523 | 34080 ft | 390 kts | 291° |
| 2026-04-27 20:15 | 38.87947 | -27.89763 | 34077 ft | 397 kts | 291° |
| 2026-04-27 20:15 | 38.90436 | -27.96209 | 34078 ft | 408 kts | 291° |
| 2026-04-27 20:16 | 38.92989 | -28.02826 | 34109 ft | 417 kts | 291° |
| 2026-04-27 20:16 | 38.95588 | -28.09573 | 34194 ft | 425 kts | 291° |
| 2026-04-27 20:17 | 38.98210 | -28.16397 | 34366 ft | 430 kts | 291° |
| 2026-04-27 20:17 | 38.99371 | -28.19421 | 34543 ft | 429 kts | 291° |
| 2026-04-27 20:17 | 39.00689 | -28.22857 | 34751 ft | 428 kts | 291° |
| 2026-04-27 20:18 | 39.02001 | -28.26284 | 34952 ft | 427 kts | 291° |
| 2026-04-27 20:18 | 39.03311 | -28.29711 | 35132 ft | 426 kts | 291° |
| 2026-04-27 20:18 | 39.04600 | -28.33086 | 35318 ft | 425 kts | 290° |
| 2026-04-27 20:18 | 39.05902 | -28.36502 | 35497 ft | 424 kts | 290° |
| 2026-04-27 20:19 | 39.07205 | -28.39923 | 35675 ft | 423 kts | 290° |
| 2026-04-27 20:19 | 39.08499 | -28.43324 | 35837 ft | 423 kts | 290° |
| 2026-04-27 20:19 | 39.09788 | -28.46717 | 36002 ft | 422 kts | 290° |
| 2026-04-27 20:19 | 39.11081 | -28.50125 | 36159 ft | 421 kts | 290° |
| 2026-04-27 20:20 | 39.12367 | -28.53516 | 36320 ft | 421 kts | 290° |
| 2026-04-27 20:20 | 39.13633 | -28.56859 | 36458 ft | 420 kts | 290° |
| 2026-04-27 20:20 | 39.14917 | -28.60253 | 36598 ft | 419 kts | 290° |
| 2026-04-27 20:20 | 39.16194 | -28.63632 | 36739 ft | 419 kts | 290° |
| 2026-04-27 20:21 | 39.17455 | -28.66974 | 36873 ft | 418 kts | 290° |
| 2026-04-27 20:21 | 39.18726 | -28.70345 | 37004 ft | 417 kts | 290° |
| 2026-04-27 20:21 | 39.19998 | -28.73723 | 37130 ft | 417 kts | 290° |
| 2026-04-27 20:21 | 39.21263 | -28.77086 | 37233 ft | 416 kts | 290° |
| 2026-04-27 20:22 | 39.22530 | -28.80459 | 37352 ft | 416 kts | 290° |
| 2026-04-27 20:22 | 39.23775 | -28.83774 | 37455 ft | 416 kts | 290° |
| 2026-04-27 20:22 | 39.25034 | -28.87132 | 37562 ft | 415 kts | 290° |
| 2026-04-27 20:22 | 39.26290 | -28.90488 | 37652 ft | 415 kts | 290° |
| 2026-04-27 20:23 | 39.28799 | -28.97198 | 37818 ft | 414 kts | 290° |
| 2026-04-27 20:23 | 39.30486 | -29.01722 | 37932 ft | 414 kts | 290° |
| 2026-04-27 20:24 | 39.33001 | -29.08475 | 38023 ft | 415 kts | 289° |
| 2026-04-27 20:24 | 39.35515 | -29.15244 | 38023 ft | 418 kts | 289° |
| 2026-04-27 20:25 | 39.38023 | -29.22008 | 38023 ft | 420 kts | 289° |
| 2026-04-27 20:25 | 39.40551 | -29.28841 | 38023 ft | 421 kts | 289° |
| 2026-04-27 20:26 | 39.43072 | -29.35662 | 38026 ft | 411 kts | 289° |
| 2026-04-27 20:26 | 39.45496 | -29.42233 | 38032 ft | 403 kts | 289° |
| 2026-04-27 20:27 | 39.47914 | -29.48835 | 38016 ft | 407 kts | 288° |
| 2026-04-27 20:27 | 39.50334 | -29.55441 | 38017 ft | 408 kts | 288° |
| 2026-04-27 20:28 | 39.51989 | -29.59961 | 38012 ft | 409 kts | 288° |
| 2026-04-27 20:28 | 39.54018 | -29.65516 | 38016 ft | 409 kts | 288° |
| 2026-04-27 20:29 | 39.56847 | -29.73280 | 38012 ft | 410 kts | 288° |
| 2026-04-27 20:29 | 39.59284 | -29.79983 | 38015 ft | 411 kts | 288° |
| 2026-04-27 20:30 | 39.61726 | -29.86715 | 38014 ft | 412 kts | 288° |
| 2026-04-27 20:30 | 39.64152 | -29.93417 | 38010 ft | 413 kts | 288° |
| 2026-04-27 20:31 | 39.66591 | -30.00173 | 38004 ft | 413 kts | 288° |
| 2026-04-27 20:31 | 39.69027 | -30.06936 | 38008 ft | 414 kts | 287° |
| 2026-04-27 20:32 | 39.71465 | -30.13719 | 38011 ft | 414 kts | 287° |
| 2026-04-27 20:32 | 39.73902 | -30.20516 | 38005 ft | 414 kts | 287° |
| 2026-04-27 20:33 | 39.76323 | -30.27285 | 38008 ft | 415 kts | 287° |
| 2026-04-27 20:33 | 39.78755 | -30.34098 | 38007 ft | 415 kts | 287° |
| 2026-04-27 20:34 | 39.81169 | -30.40879 | 38004 ft | 415 kts | 287° |
| 2026-04-27 20:34 | 39.83596 | -30.47711 | 38002 ft | 415 kts | 287° |
| 2026-04-27 20:35 | 39.86002 | -30.54500 | 38001 ft | 415 kts | 286° |
| 2026-04-27 20:35 | 39.88415 | -30.61327 | 37988 ft | 415 kts | 286° |
| 2026-04-27 20:36 | 39.90828 | -30.68167 | 37991 ft | 414 kts | 286° |
| 2026-04-27 20:36 | 39.93218 | -30.74959 | 37987 ft | 414 kts | 286° |
| 2026-04-27 20:37 | 39.95620 | -30.81802 | 37985 ft | 414 kts | 286° |
| 2026-04-27 20:37 | 39.98013 | -30.88635 | 37983 ft | 414 kts | 286° |
| 2026-04-27 20:38 | 40.00399 | -30.95466 | 37982 ft | 414 kts | 285° |
| 2026-04-27 20:38 | 40.02768 | -31.02263 | 37977 ft | 414 kts | 285° |
| 2026-04-27 20:39 | 40.05148 | -31.09106 | 37976 ft | 414 kts | 285° |
| 2026-04-27 20:39 | 40.07527 | -31.15965 | 37971 ft | 414 kts | 285° |
| 2026-04-27 20:40 | 40.09898 | -31.22816 | 37968 ft | 414 kts | 285° |
| 2026-04-27 20:40 | 40.12252 | -31.29635 | 37967 ft | 414 kts | 285° |
| 2026-04-27 20:41 | 40.14616 | -31.36501 | 37972 ft | 414 kts | 285° |
| 2026-04-27 20:41 | 40.16980 | -31.43381 | 37961 ft | 414 kts | 285° |
| 2026-04-27 20:42 | 40.19342 | -31.50272 | 37969 ft | 415 kts | 285° |
| 2026-04-27 20:42 | 40.21684 | -31.57124 | 37959 ft | 415 kts | 285° |
| 2026-04-27 20:43 | 40.24038 | -31.64025 | 37963 ft | 415 kts | 284° |
| 2026-04-27 20:43 | 40.26393 | -31.70946 | 37967 ft | 415 kts | 284° |
| 2026-04-27 20:44 | 40.28740 | -31.77864 | 37965 ft | 415 kts | 284° |
| 2026-04-27 20:44 | 40.31072 | -31.84751 | 37962 ft | 415 kts | 284° |
| 2026-04-27 20:45 | 40.33417 | -31.91695 | 37963 ft | 415 kts | 284° |
| 2026-04-27 20:45 | 40.35356 | -31.97450 | 37958 ft | 415 kts | 284° |
| 2026-04-27 20:46 | 40.38064 | -32.05505 | 37954 ft | 415 kts | 284° |
| 2026-04-27 20:46 | 40.40009 | -32.11307 | 37949 ft | 414 kts | 284° |
| 2026-04-27 20:47 | 40.42313 | -32.18194 | 37945 ft | 414 kts | 284° |
| 2026-04-27 20:47 | 40.44628 | -32.25130 | 37941 ft | 414 kts | 284° |
| 2026-04-27 20:48 | 40.46932 | -32.32052 | 37937 ft | 413 kts | 284° |
| 2026-04-27 20:48 | 40.49213 | -32.38924 | 37927 ft | 413 kts | 284° |
| 2026-04-27 20:49 | 40.51508 | -32.45851 | 37912 ft | 412 kts | 284° |
| 2026-04-27 20:49 | 40.53796 | -32.52774 | 37916 ft | 412 kts | 284° |
| 2026-04-27 20:50 | 40.56061 | -32.59648 | 37918 ft | 412 kts | 284° |
| 2026-04-27 20:50 | 40.58339 | -32.66577 | 37908 ft | 411 kts | 284° |
| 2026-04-27 20:51 | 40.60596 | -32.73457 | 37903 ft | 411 kts | 284° |
| 2026-04-27 20:51 | 40.62860 | -32.80377 | 37901 ft | 411 kts | 284° |
| 2026-04-27 20:52 | 40.65122 | -32.87309 | 37903 ft | 412 kts | 284° |
| 2026-04-27 20:52 | 40.67373 | -32.94224 | 37898 ft | 412 kts | 285° |
| 2026-04-27 20:53 | 40.69632 | -33.01184 | 37900 ft | 413 kts | 285° |
| 2026-04-27 20:53 | 40.71892 | -33.08163 | 37883 ft | 413 kts | 285° |
| 2026-04-27 20:54 | 40.75265 | -33.18612 | 37892 ft | 414 kts | 285° |
| 2026-04-27 20:55 | 40.77520 | -33.25620 | 37895 ft | 415 kts | 285° |
| 2026-04-27 20:55 | 40.79782 | -33.32666 | 37899 ft | 416 kts | 285° |
| 2026-04-27 20:56 | 40.82027 | -33.39679 | 37900 ft | 417 kts | 285° |
| 2026-04-27 20:56 | 40.84293 | -33.46772 | 37900 ft | 418 kts | 285° |
| 2026-04-27 20:57 | 40.86541 | -33.53829 | 37909 ft | 419 kts | 285° |
| 2026-04-27 20:57 | 40.88801 | -33.60942 | 37914 ft | 420 kts | 285° |
| 2026-04-27 20:58 | 40.91065 | -33.68085 | 37911 ft | 420 kts | 286° |
| 2026-04-27 20:58 | 40.93308 | -33.75181 | 37908 ft | 421 kts | 286° |
| 2026-04-27 20:59 | 40.95567 | -33.82345 | 37911 ft | 421 kts | 286° |
| 2026-04-27 20:59 | 40.97818 | -33.89504 | 37913 ft | 421 kts | 286° |
| 2026-04-27 21:00 | 41.00053 | -33.96633 | 37906 ft | 421 kts | 286° |
| 2026-04-27 21:00 | 41.02299 | -34.03814 | 37900 ft | 421 kts | 286° |
| 2026-04-27 21:01 | 41.04534 | -34.10977 | 37900 ft | 421 kts | 286° |
| 2026-04-27 21:01 | 41.06753 | -34.18112 | 37894 ft | 420 kts | 286° |
| 2026-04-27 21:02 | 41.08977 | -34.25279 | 37883 ft | 420 kts | 286° |
| 2026-04-27 21:02 | 41.11200 | -34.32463 | 37877 ft | 420 kts | 286° |
| 2026-04-27 21:03 | 41.13403 | -34.39602 | 37873 ft | 420 kts | 286° |
| 2026-04-27 21:03 | 41.15607 | -34.46765 | 37874 ft | 419 kts | 286° |
| 2026-04-27 21:04 | 41.17807 | -34.53931 | 37861 ft | 419 kts | 286° |
| 2026-04-27 21:04 | 41.20006 | -34.61114 | 37855 ft | 419 kts | 286° |
| 2026-04-27 21:05 | 41.22200 | -34.68303 | 37858 ft | 420 kts | 286° |
| 2026-04-27 21:05 | 41.24379 | -34.75462 | 37857 ft | 420 kts | 286° |
| 2026-04-27 21:06 | 41.26576 | -34.82695 | 37856 ft | 421 kts | 286° |
| 2026-04-27 21:06 | 41.28752 | -34.89883 | 37861 ft | 421 kts | 286° |
| 2026-04-27 21:07 | 41.30942 | -34.97135 | 37864 ft | 422 kts | 286° |
| 2026-04-27 21:07 | 41.33128 | -35.04393 | 37866 ft | 423 kts | 286° |
| 2026-04-27 21:08 | 41.35313 | -35.11670 | 37864 ft | 424 kts | 286° |
| 2026-04-27 21:08 | 41.37498 | -35.18964 | 37866 ft | 424 kts | 286° |
| 2026-04-27 21:09 | 41.39667 | -35.26226 | 37871 ft | 425 kts | 286° |
| 2026-04-27 21:09 | 41.41851 | -35.33557 | 37868 ft | 425 kts | 286° |
| 2026-04-27 21:10 | 41.44034 | -35.40906 | 37873 ft | 426 kts | 286° |
| 2026-04-27 21:10 | 41.46214 | -35.48266 | 37866 ft | 426 kts | 286° |
| 2026-04-27 21:11 | 41.48380 | -35.55599 | 37862 ft | 427 kts | 286° |
| 2026-04-27 21:11 | 41.50557 | -35.62991 | 37859 ft | 427 kts | 286° |
| 2026-04-27 21:12 | 41.52728 | -35.70382 | 37852 ft | 427 kts | 286° |
| 2026-04-27 21:12 | 41.54880 | -35.77732 | 37851 ft | 427 kts | 286° |
| 2026-04-27 21:13 | 41.57046 | -35.85149 | 37851 ft | 428 kts | 286° |
| 2026-04-27 21:13 | 41.59202 | -35.92556 | 37849 ft | 428 kts | 286° |
| 2026-04-27 21:14 | 41.61346 | -35.99941 | 37849 ft | 428 kts | 286° |
| 2026-04-27 21:14 | 41.63500 | -36.07381 | 37847 ft | 429 kts | 286° |
| 2026-04-27 21:15 | 41.65650 | -36.14829 | 37839 ft | 429 kts | 286° |
| 2026-04-27 21:15 | 41.67799 | -36.22298 | 37837 ft | 430 kts | 286° |
| 2026-04-27 21:16 | 41.69935 | -36.29739 | 37838 ft | 430 kts | 286° |
| 2026-04-27 21:16 | 41.72077 | -36.37228 | 37841 ft | 431 kts | 286° |
| 2026-04-27 21:17 | 41.74217 | -36.44728 | 37836 ft | 431 kts | 286° |
| 2026-04-27 21:17 | 41.76347 | -36.52216 | 37837 ft | 432 kts | 286° |
| 2026-04-27 21:18 | 41.78490 | -36.59771 | 37835 ft | 433 kts | 286° |
| 2026-04-27 21:18 | 41.80619 | -36.67299 | 37834 ft | 434 kts | 286° |
| 2026-04-27 21:19 | 41.82753 | -36.74872 | 37841 ft | 434 kts | 286° |
| 2026-04-27 21:19 | 41.84887 | -36.82463 | 37839 ft | 435 kts | 286° |
| 2026-04-27 21:20 | 41.88076 | -36.93852 | 37838 ft | 436 kts | 286° |
| 2026-04-27 21:20 | 41.90209 | -37.01497 | 37835 ft | 438 kts | 286° |
| 2026-04-27 21:21 | 41.92357 | -37.09226 | 37834 ft | 443 kts | 286° |
| 2026-04-27 21:21 | 41.94503 | -37.16963 | 37833 ft | 444 kts | 286° |
| 2026-04-27 21:22 | 41.96661 | -37.24770 | 37830 ft | 444 kts | 286° |
| 2026-04-27 21:22 | 41.98813 | -37.32582 | 37831 ft | 445 kts | 287° |
| 2026-04-27 21:23 | 42.00951 | -37.40363 | 37828 ft | 445 kts | 287° |
| 2026-04-27 21:23 | 42.03095 | -37.48196 | 37827 ft | 446 kts | 287° |
| 2026-04-27 21:24 | 42.05227 | -37.56008 | 37826 ft | 446 kts | 287° |
| 2026-04-27 21:24 | 42.07366 | -37.63870 | 37827 ft | 447 kts | 287° |
| 2026-04-27 21:25 | 42.09487 | -37.71690 | 37824 ft | 447 kts | 287° |
| 2026-04-27 21:25 | 42.11618 | -37.79570 | 37822 ft | 447 kts | 287° |
| 2026-04-27 21:26 | 42.13747 | -37.87471 | 37819 ft | 447 kts | 287° |
| 2026-04-27 21:26 | 42.15854 | -37.95315 | 37820 ft | 448 kts | 287° |
| 2026-04-27 21:27 | 42.17971 | -38.03221 | 37819 ft | 448 kts | 287° |
| 2026-04-27 21:27 | 42.20082 | -38.11131 | 37819 ft | 448 kts | 287° |
| 2026-04-27 21:28 | 42.22190 | -38.19054 | 37824 ft | 448 kts | 287° |
| 2026-04-27 21:28 | 42.24280 | -38.26938 | 37824 ft | 448 kts | 287° |
| 2026-04-27 21:29 | 42.26379 | -38.34880 | 37807 ft | 448 kts | 287° |
| 2026-04-27 21:29 | 42.28455 | -38.42762 | 37814 ft | 448 kts | 287° |
| 2026-04-27 21:30 | 42.30548 | -38.50733 | 37817 ft | 448 kts | 287° |
| 2026-04-27 21:30 | 42.32629 | -38.58685 | 37809 ft | 448 kts | 287° |
| 2026-04-27 21:31 | 42.34692 | -38.66595 | 37813 ft | 448 kts | 287° |
| 2026-04-27 21:31 | 42.36765 | -38.74568 | 37806 ft | 448 kts | 287° |
| 2026-04-27 21:32 | 42.38482 | -38.81194 | 37799 ft | 448 kts | 287° |
| 2026-04-27 21:32 | 42.40876 | -38.90459 | 37805 ft | 448 kts | 287° |
| 2026-04-27 21:33 | 42.42585 | -38.97098 | 37792 ft | 448 kts | 287° |
| 2026-04-27 21:33 | 42.44968 | -39.06387 | 37801 ft | 448 kts | 287° |
| 2026-04-27 21:34 | 42.46669 | -39.13035 | 37794 ft | 448 kts | 287° |
| 2026-04-27 21:34 | 42.48706 | -39.21028 | 37796 ft | 448 kts | 287° |
| 2026-04-27 21:35 | 42.50742 | -39.29041 | 37793 ft | 449 kts | 287° |
| 2026-04-27 21:35 | 42.52756 | -39.36994 | 37792 ft | 449 kts | 288° |
| 2026-04-27 21:36 | 42.54781 | -39.45016 | 37791 ft | 449 kts | 288° |
| 2026-04-27 21:36 | 42.56796 | -39.53028 | 37796 ft | 449 kts | 288° |
| 2026-04-27 21:37 | 42.58810 | -39.61063 | 37795 ft | 449 kts | 288° |
| 2026-04-27 21:37 | 42.60803 | -39.69041 | 37793 ft | 449 kts | 288° |
| 2026-04-27 21:38 | 42.62803 | -39.77074 | 37792 ft | 449 kts | 288° |
| 2026-04-27 21:38 | 42.64803 | -39.85135 | 37790 ft | 449 kts | 288° |
| 2026-04-27 21:39 | 42.66782 | -39.93138 | 37795 ft | 449 kts | 288° |
| 2026-04-27 21:39 | 42.68768 | -40.01199 | 37793 ft | 449 kts | 288° |
| 2026-04-27 21:40 | 42.70747 | -40.09261 | 37788 ft | 449 kts | 288° |
| 2026-04-27 21:40 | 42.72709 | -40.17282 | 37784 ft | 449 kts | 288° |
| 2026-04-27 21:41 | 42.74675 | -40.25345 | 37792 ft | 449 kts | 288° |
| 2026-04-27 21:41 | 42.76624 | -40.33368 | 37792 ft | 449 kts | 288° |
| 2026-04-27 21:42 | 42.78580 | -40.41447 | 37791 ft | 449 kts | 288° |
| 2026-04-27 21:42 | 42.80534 | -40.49544 | 37795 ft | 449 kts | 288° |
| 2026-04-27 21:43 | 42.82478 | -40.57631 | 37794 ft | 449 kts | 288° |
| 2026-04-27 21:43 | 42.84403 | -40.65669 | 37797 ft | 449 kts | 288° |
| 2026-04-27 21:44 | 42.86336 | -40.73766 | 37798 ft | 449 kts | 288° |
| 2026-04-27 21:44 | 42.88253 | -40.81829 | 37800 ft | 448 kts | 288° |
| 2026-04-27 21:45 | 42.90176 | -40.89943 | 37798 ft | 448 kts | 288° |
| 2026-04-27 21:45 | 42.92088 | -40.98040 | 37797 ft | 448 kts | 288° |
| 2026-04-27 21:46 | 42.93998 | -41.06157 | 37798 ft | 448 kts | 288° |
| 2026-04-27 21:46 | 42.95889 | -41.14222 | 37798 ft | 448 kts | 288° |
| 2026-04-27 21:47 | 42.97786 | -41.22345 | 37794 ft | 448 kts | 288° |
| 2026-04-27 21:47 | 42.99675 | -41.30460 | 37797 ft | 448 kts | 288° |
| 2026-04-27 21:48 | 43.01549 | -41.38544 | 37804 ft | 448 kts | 288° |
| 2026-04-27 21:48 | 43.03427 | -41.46671 | 37807 ft | 447 kts | 288° |
| 2026-04-27 21:49 | 43.05284 | -41.54738 | 37808 ft | 447 kts | 288° |
| 2026-04-27 21:49 | 43.07148 | -41.62866 | 37811 ft | 447 kts | 288° |
| 2026-04-27 21:50 | 43.09003 | -41.70985 | 37807 ft | 447 kts | 288° |
| 2026-04-27 21:50 | 43.10854 | -41.79113 | 37813 ft | 447 kts | 288° |
| 2026-04-27 21:51 | 43.12686 | -41.87191 | 37819 ft | 446 kts | 288° |
| 2026-04-27 21:51 | 43.14526 | -41.95333 | 37815 ft | 446 kts | 288° |
| 2026-04-27 21:52 | 43.16347 | -42.03421 | 37818 ft | 446 kts | 288° |
| 2026-04-27 21:52 | 43.18172 | -42.11561 | 37820 ft | 446 kts | 288° |
| 2026-04-27 21:53 | 43.19983 | -42.19666 | 37824 ft | 446 kts | 288° |
| 2026-04-27 21:53 | 43.21798 | -42.27819 | 37829 ft | 446 kts | 288° |
| 2026-04-27 21:54 | 43.23603 | -42.35956 | 37829 ft | 446 kts | 288° |
| 2026-04-27 21:54 | 43.25393 | -42.44058 | 37839 ft | 446 kts | 288° |
| 2026-04-27 21:55 | 43.27184 | -42.52195 | 37845 ft | 446 kts | 288° |
| 2026-04-27 21:55 | 43.28969 | -42.60338 | 37856 ft | 445 kts | 289° |
| 2026-04-27 21:56 | 43.31641 | -42.72586 | 37857 ft | 445 kts | 289° |
| 2026-04-27 21:57 | 43.33401 | -42.80689 | 37870 ft | 445 kts | 289° |
| 2026-04-27 21:57 | 43.35165 | -42.88843 | 37863 ft | 445 kts | 289° |
| 2026-04-27 21:58 | 43.36925 | -42.97009 | 37858 ft | 445 kts | 289° |
| 2026-04-27 21:58 | 43.38676 | -43.05167 | 37872 ft | 444 kts | 289° |
| 2026-04-27 21:59 | 43.40412 | -43.13289 | 37875 ft | 444 kts | 289° |
| 2026-04-27 21:59 | 43.42153 | -43.21460 | 37875 ft | 444 kts | 289° |
| 2026-04-27 22:00 | 43.43878 | -43.29591 | 37871 ft | 444 kts | 289° |
| 2026-04-27 22:00 | 43.45607 | -43.37773 | 37888 ft | 444 kts | 289° |
| 2026-04-27 22:01 | 43.47330 | -43.45959 | 37894 ft | 444 kts | 289° |
| 2026-04-27 22:01 | 43.49033 | -43.54084 | 37897 ft | 444 kts | 289° |
| 2026-04-27 22:02 | 43.50744 | -43.62279 | 37902 ft | 445 kts | 289° |
| 2026-04-27 22:02 | 43.52450 | -43.70478 | 37910 ft | 445 kts | 289° |
| 2026-04-27 22:03 | 43.54142 | -43.78646 | 37917 ft | 445 kts | 289° |
| 2026-04-27 22:03 | 43.55841 | -43.86880 | 37926 ft | 445 kts | 289° |
| 2026-04-27 22:04 | 43.57532 | -43.95110 | 37929 ft | 445 kts | 289° |
| 2026-04-27 22:04 | 43.59210 | -44.03309 | 37937 ft | 446 kts | 289° |
| 2026-04-27 22:05 | 43.60891 | -44.11549 | 37942 ft | 446 kts | 289° |
| 2026-04-27 22:05 | 43.62441 | -44.19186 | 37951 ft | 446 kts | 289° |
| 2026-04-27 22:06 | 43.64113 | -44.27453 | 37953 ft | 446 kts | 289° |
| 2026-04-27 22:06 | 43.65769 | -44.35674 | 37955 ft | 446 kts | 289° |
| 2026-04-27 22:07 | 43.67425 | -44.43928 | 37961 ft | 446 kts | 289° |
| 2026-04-27 22:07 | 43.69076 | -44.52196 | 37971 ft | 446 kts | 289° |
| 2026-04-27 22:08 | 43.70437 | -44.59034 | 37975 ft | 446 kts | 289° |
| 2026-04-27 22:08 | 43.71499 | -44.64387 | 37974 ft | 446 kts | 289° |
| 2026-04-27 22:09 | 43.73125 | -44.72612 | 37984 ft | 446 kts | 289° |
| 2026-04-27 22:09 | 43.74755 | -44.80892 | 37991 ft | 445 kts | 289° |